createdAt,value
2018-11-02T00:00:39.216Z,6.20
2018-11-02T00:01:39.194Z,6.40
2018-11-02T00:02:39.192Z,6.50
2018-11-02T00:03:39.175Z,6.20
2018-11-02T00:04:39.208Z,6.90
2018-11-02T00:05:39.112Z,6.80
2018-11-02T00:06:39.182Z,7.20
2018-11-02T00:07:39.137Z,7.10
2018-11-02T00:08:39.148Z,7.50
2018-11-02T00:09:39.119Z,8.10
2018-11-02T00:10:39.139Z,7.90
2018-11-02T00:11:39.085Z,8.50
2018-11-02T00:12:39.077Z,8.80
2018-11-02T00:13:39.062Z,9.00
2018-11-02T00:14:39.060Z,9.00
2018-11-02T00:15:39.049Z,8.50
2018-11-02T00:16:39.055Z,8.70
2018-11-02T00:17:39.074Z,8.60
2018-11-02T00:18:39.013Z,8.20
2018-11-02T00:19:39.005Z,8.20
2018-11-02T00:20:39.034Z,8.20
2018-11-02T00:21:38.981Z,8.10
2018-11-02T00:22:38.965Z,7.90
2018-11-02T00:23:38.972Z,8.30
2018-11-02T00:24:38.947Z,7.20
2018-11-02T00:25:38.929Z,7.20
2018-11-02T00:26:38.900Z,7.50
2018-11-02T00:27:38.913Z,6.80
2018-11-02T00:28:38.929Z,7.00
2018-11-02T00:29:38.859Z,6.50
2018-11-02T00:30:38.872Z,6.60
2018-11-02T00:31:38.946Z,6.80
2018-11-02T00:32:38.820Z,6.70
2018-11-02T00:33:38.846Z,5.00
2018-11-02T00:34:38.847Z,4.90
2018-11-02T00:35:38.832Z,4.70
2018-11-02T00:36:38.833Z,5.10
2018-11-02T00:37:38.808Z,5.00
2018-11-02T00:38:38.788Z,5.40
2018-11-02T00:39:38.781Z,5.50
2018-11-02T00:40:38.773Z,5.40
2018-11-02T00:41:38.789Z,6.20
2018-11-02T00:42:38.736Z,6.30
2018-11-02T00:43:38.731Z,6.30
2018-11-02T00:44:38.752Z,6.50
2018-11-02T00:45:38.721Z,6.70
2018-11-02T00:46:38.770Z,7.30
2018-11-02T00:47:39.093Z,6.90
2018-11-02T00:48:38.714Z,7.40
2018-11-02T00:49:38.622Z,6.80
2018-11-02T00:50:38.712Z,7.40
2018-11-02T00:51:38.661Z,6.60
2018-11-02T00:52:38.648Z,7.30
2018-11-02T00:53:38.621Z,7.10
2018-11-02T00:54:38.586Z,7.00
2018-11-02T00:55:38.604Z,6.90
2018-11-02T00:56:38.605Z,7.20
2018-11-02T00:57:38.591Z,7.10
2018-11-02T00:58:38.583Z,7.20
2018-11-02T00:59:38.570Z,7.20
2018-11-02T01:00:38.547Z,7.30
2018-11-02T01:01:38.534Z,7.50
2018-11-02T01:02:38.538Z,7.10
2018-11-02T01:03:38.559Z,7.20
2018-11-02T01:04:38.657Z,7.30
2018-11-02T01:05:38.932Z,7.60
2018-11-02T01:06:38.483Z,7.90
2018-11-02T01:07:38.498Z,7.20
2018-11-02T01:08:38.441Z,7.70
2018-11-02T01:09:38.400Z,7.20
2018-11-02T01:10:38.439Z,7.80
2018-11-02T01:11:38.457Z,8.10
2018-11-02T01:12:38.367Z,6.60
2018-11-02T01:13:38.357Z,7.30
2018-11-02T01:14:38.403Z,7.10
2018-11-02T01:15:38.430Z,7.90
2018-11-02T01:16:38.449Z,7.30
2018-11-02T01:17:38.355Z,7.90
2018-11-02T01:18:38.349Z,7.10
2018-11-02T01:19:38.333Z,7.20
2018-11-02T01:20:38.370Z,7.00
2018-11-02T01:21:38.322Z,6.70
2018-11-02T01:22:38.304Z,6.80
2018-11-02T01:23:38.293Z,6.80
2018-11-02T01:24:38.280Z,6.90
2018-11-02T01:25:38.300Z,6.80
2018-11-02T01:26:38.288Z,6.60
2018-11-02T01:27:38.257Z,6.50
2018-11-02T01:28:38.271Z,6.20
2018-11-02T01:29:38.229Z,5.70
2018-11-02T01:30:38.224Z,4.70
2018-11-02T01:31:38.246Z,5.00
2018-11-02T01:32:38.228Z,4.30
2018-11-02T01:33:38.180Z,4.00
2018-11-02T01:34:38.169Z,4.00
2018-11-02T01:35:38.160Z,3.70
2018-11-02T01:36:38.147Z,2.90
2018-11-02T01:37:38.297Z,3.00
2018-11-02T01:38:38.128Z,3.30
2018-11-02T01:39:38.195Z,3.60
2018-11-02T01:40:38.103Z,3.50
2018-11-02T01:41:38.095Z,3.50
2018-11-02T01:42:38.127Z,3.60
2018-11-02T01:43:38.120Z,2.90
2018-11-02T01:44:38.059Z,3.40
2018-11-02T01:45:38.050Z,3.30
2018-11-02T01:46:37.998Z,2.60
2018-11-02T01:47:38.053Z,3.10
2018-11-02T01:48:38.021Z,3.10
2018-11-02T01:49:38.084Z,2.70
2018-11-02T01:50:38.028Z,2.50
2018-11-02T01:51:37.947Z,2.40
2018-11-02T01:52:37.970Z,2.90
2018-11-02T01:53:38.063Z,2.60
2018-11-02T01:54:37.919Z,2.30
2018-11-02T01:55:37.975Z,2.40
2018-11-02T01:56:37.931Z,2.50
2018-11-02T01:57:37.957Z,2.60
2018-11-02T01:58:37.905Z,2.10
2018-11-02T01:59:37.944Z,2.20
2018-11-02T02:00:37.911Z,2.10
2018-11-02T02:01:37.883Z,2.60
2018-11-02T02:02:37.877Z,2.30
2018-11-02T02:03:37.815Z,1.90
2018-11-02T02:04:37.922Z,2.40
2018-11-02T02:05:37.804Z,2.10
2018-11-02T02:06:37.836Z,2.10
2018-11-02T02:07:37.857Z,1.70
2018-11-02T02:08:37.843Z,1.90
2018-11-02T02:09:37.743Z,2.40
2018-11-02T02:10:37.779Z,1.60
2018-11-02T02:11:37.768Z,1.80
2018-11-02T02:12:37.722Z,1.60
2018-11-02T02:13:37.793Z,1.80
2018-11-02T02:14:37.750Z,1.40
2018-11-02T02:15:37.729Z,1.50
2018-11-02T02:16:37.776Z,1.30
2018-11-02T02:17:37.700Z,1.30
2018-11-02T02:18:37.685Z,1.20
2018-11-02T02:19:37.694Z,1.30
2018-11-02T02:20:37.664Z,0.90
2018-11-02T02:21:37.740Z,1.00
2018-11-02T02:22:37.645Z,1.20
2018-11-02T02:23:37.637Z,1.10
2018-11-02T02:24:37.628Z,0.70
2018-11-02T02:25:37.609Z,0.90
2018-11-02T02:26:37.599Z,0.80
2018-11-02T02:27:37.594Z,1.10
2018-11-02T02:28:37.574Z,0.90
2018-11-02T02:29:37.568Z,0.60
2018-11-02T02:30:37.559Z,1.20
2018-11-02T02:31:37.549Z,0.60
2018-11-02T02:32:37.534Z,0.70
2018-11-02T02:33:37.520Z,0.90
2018-11-02T02:34:37.514Z,0.60
2018-11-02T02:35:37.498Z,0.60
2018-11-02T02:36:37.456Z,0.80
2018-11-02T02:37:37.529Z,0.60
2018-11-02T02:38:37.478Z,0.60
2018-11-02T02:39:37.414Z,0.50
2018-11-02T02:40:37.449Z,0.70
2018-11-02T02:41:37.468Z,0.70
2018-11-02T02:42:37.541Z,0.50
2018-11-02T02:43:37.411Z,0.70
2018-11-02T02:44:37.352Z,0.80
2018-11-02T02:45:37.346Z,1.20
2018-11-02T02:46:37.400Z,2.10
2018-11-02T02:47:37.414Z,1.20
2018-11-02T02:48:37.409Z,0.90
2018-11-02T02:49:37.379Z,1.10
2018-11-02T02:50:37.292Z,1.00
2018-11-02T02:51:37.335Z,0.70
2018-11-02T02:52:37.443Z,0.70
2018-11-02T02:53:37.306Z,0.60
2018-11-02T02:54:37.297Z,0.60
2018-11-02T02:55:37.334Z,1.10
2018-11-02T02:56:37.227Z,0.60
2018-11-02T02:57:37.260Z,0.70
2018-11-02T02:58:37.274Z,0.50
2018-11-02T02:59:37.193Z,1.30
2018-11-02T03:00:37.217Z,0.70
2018-11-02T03:01:37.224Z,0.50
2018-11-02T03:02:37.208Z,0.60
2018-11-02T03:03:37.143Z,0.70
2018-11-02T03:04:37.179Z,0.70
2018-11-02T03:05:37.207Z,0.50
2018-11-02T03:06:37.172Z,0.70
2018-11-02T03:07:37.111Z,0.60
2018-11-02T03:08:37.174Z,0.70
2018-11-02T03:09:37.133Z,0.90
2018-11-02T03:10:37.204Z,0.90
2018-11-02T03:11:37.069Z,0.50
2018-11-02T03:12:37.095Z,0.60
2018-11-02T03:13:37.515Z,1.60
2018-11-02T03:14:37.073Z,0.70
2018-11-02T03:15:37.059Z,0.60
2018-11-02T03:16:37.068Z,1.20
2018-11-02T03:17:37.044Z,0.60
2018-11-02T03:18:37.093Z,1.20
2018-11-02T03:19:37.051Z,0.70
2018-11-02T03:20:37.010Z,0.50
2018-11-02T03:21:36.995Z,0.70
2018-11-02T03:22:37.064Z,0.50
2018-11-02T03:23:36.988Z,0.50
2018-11-02T03:24:36.959Z,0.60
2018-11-02T03:25:37.005Z,0.60
2018-11-02T03:26:36.906Z,1.10
2018-11-02T03:27:36.925Z,0.60
2018-11-02T03:28:36.918Z,0.60
2018-11-02T03:29:36.908Z,0.70
2018-11-02T03:30:36.925Z,0.50
2018-11-02T03:31:36.885Z,0.50
2018-11-02T03:32:36.873Z,1.20
2018-11-02T03:33:36.882Z,0.70
2018-11-02T03:34:36.850Z,0.60
2018-11-02T03:35:36.844Z,0.80
2018-11-02T03:36:36.875Z,1.00
2018-11-02T03:37:37.100Z,1.70
2018-11-02T03:38:36.826Z,0.60
2018-11-02T03:39:36.973Z,0.60
2018-11-02T03:40:36.787Z,0.70
2018-11-02T03:41:36.776Z,0.80
2018-11-02T03:42:36.769Z,0.80
2018-11-02T03:43:36.769Z,0.90
2018-11-02T03:44:36.749Z,0.90
2018-11-02T03:45:36.690Z,0.90
2018-11-02T03:46:36.741Z,0.90
2018-11-02T03:47:36.708Z,1.10
2018-11-02T03:48:36.734Z,1.40
2018-11-02T03:49:36.736Z,1.30
2018-11-02T03:50:36.703Z,1.20
2018-11-02T03:51:36.730Z,0.70
2018-11-02T03:52:36.661Z,1.10
2018-11-02T03:53:36.881Z,0.90
2018-11-02T03:54:36.648Z,0.70
2018-11-02T03:55:36.649Z,0.80
2018-11-02T03:56:36.623Z,0.90
2018-11-02T03:57:36.615Z,1.10
2018-11-02T03:58:36.621Z,0.80
2018-11-02T03:59:36.594Z,0.90
2018-11-02T04:00:36.598Z,1.00
2018-11-02T04:01:36.849Z,1.20
2018-11-02T04:02:36.556Z,1.30
2018-11-02T04:03:36.497Z,1.50
2018-11-02T04:04:36.486Z,2.20
2018-11-02T04:05:36.515Z,1.90
2018-11-02T04:06:36.520Z,1.40
2018-11-02T04:07:36.472Z,4.60
2018-11-02T04:08:36.484Z,4.50
2018-11-02T04:09:36.548Z,4.60
2018-11-02T04:10:36.518Z,4.80
2018-11-02T04:11:36.405Z,4.70
2018-11-02T04:12:36.851Z,4.30
2018-11-02T04:13:36.429Z,8.10
2018-11-02T04:14:36.423Z,7.30
2018-11-02T04:15:36.410Z,8.20
2018-11-02T04:16:36.436Z,13.60
2018-11-02T04:17:36.352Z,12.40
2018-11-02T04:18:36.676Z,10.40
2018-11-02T04:19:36.385Z,8.50
2018-11-02T04:20:36.367Z,7.40
2018-11-02T04:21:36.349Z,5.50
2018-11-02T04:22:36.331Z,4.90
2018-11-02T04:23:36.276Z,3.70
2018-11-02T04:24:36.362Z,4.40
2018-11-02T04:25:36.349Z,4.20
2018-11-02T04:26:36.298Z,3.70
2018-11-02T04:27:36.280Z,3.20
2018-11-02T04:28:36.270Z,4.00
2018-11-02T04:29:36.215Z,3.70
2018-11-02T04:30:36.377Z,3.90
2018-11-02T04:31:36.235Z,3.30
2018-11-02T04:32:36.234Z,4.20
2018-11-02T04:33:36.225Z,3.80
2018-11-02T04:34:36.166Z,3.80
2018-11-02T04:35:36.205Z,3.50
2018-11-02T04:36:36.159Z,3.00
2018-11-02T04:37:36.179Z,2.70
2018-11-02T04:38:36.298Z,2.70
2018-11-02T04:39:36.154Z,2.60
2018-11-02T04:40:36.159Z,2.70
2018-11-02T04:41:36.126Z,3.00
2018-11-02T04:42:36.075Z,2.50
2018-11-02T04:43:36.103Z,2.10
2018-11-02T04:44:36.157Z,1.80
2018-11-02T04:45:36.324Z,2.20
2018-11-02T04:46:36.072Z,1.80
2018-11-02T04:47:36.060Z,1.90
2018-11-02T04:48:36.090Z,2.20
2018-11-02T04:49:36.042Z,2.60
2018-11-02T04:50:36.002Z,3.00
2018-11-02T04:51:36.041Z,3.30
2018-11-02T04:52:36.006Z,3.90
2018-11-02T04:53:36.014Z,3.60
2018-11-02T04:54:35.985Z,3.50
2018-11-02T04:55:35.975Z,4.00
2018-11-02T04:56:35.984Z,3.00
2018-11-02T04:57:35.954Z,2.90
2018-11-02T04:58:36.218Z,3.10
2018-11-02T04:59:35.929Z,3.60
2018-11-02T05:00:35.921Z,3.60
2018-11-02T05:01:35.905Z,3.30
2018-11-02T05:02:35.896Z,3.40
2018-11-02T05:03:35.897Z,3.80
2018-11-02T05:04:35.897Z,4.10
2018-11-02T05:05:35.867Z,4.00
2018-11-02T05:06:35.854Z,4.30
2018-11-02T05:07:35.842Z,3.70
2018-11-02T05:08:35.834Z,4.20
2018-11-02T05:09:35.871Z,3.90
2018-11-02T05:10:35.808Z,3.30
2018-11-02T05:11:35.840Z,2.80
2018-11-02T05:12:35.787Z,3.20
2018-11-02T05:13:35.777Z,2.40
2018-11-02T05:14:35.784Z,2.40
2018-11-02T05:15:35.773Z,2.40
2018-11-02T05:16:35.757Z,2.00
2018-11-02T05:17:35.738Z,2.20
2018-11-02T05:18:35.724Z,3.70
2018-11-02T05:19:35.716Z,4.20
2018-11-02T05:20:35.725Z,5.00
2018-11-02T05:21:35.689Z,4.70
2018-11-02T05:22:35.680Z,3.20
2018-11-02T05:23:35.667Z,2.40
2018-11-02T05:24:35.677Z,2.40
2018-11-02T05:25:35.603Z,2.30
2018-11-02T05:26:35.920Z,2.20
2018-11-02T05:27:35.625Z,2.60
2018-11-02T05:28:35.626Z,2.90
2018-11-02T05:29:35.606Z,1.90
2018-11-02T05:30:35.598Z,1.90
2018-11-02T05:31:35.582Z,2.70
2018-11-02T05:32:35.637Z,2.30
2018-11-02T05:33:35.561Z,2.20
2018-11-02T05:34:35.552Z,3.00
2018-11-02T05:35:35.523Z,2.30
2018-11-02T05:36:35.533Z,5.50
2018-11-02T05:37:35.503Z,8.50
2018-11-02T05:38:35.510Z,5.30
2018-11-02T05:39:35.564Z,3.70
2018-11-02T05:40:35.482Z,5.80
2018-11-02T05:41:35.434Z,7.20
2018-11-02T05:42:35.471Z,7.30
2018-11-02T05:43:35.433Z,5.70
2018-11-02T05:44:35.437Z,5.40
2018-11-02T05:45:35.436Z,4.80
2018-11-02T05:46:35.462Z,4.60
2018-11-02T05:47:35.372Z,5.20
2018-11-02T05:48:35.395Z,4.80
2018-11-02T05:49:35.672Z,5.50
2018-11-02T05:50:35.328Z,4.10
2018-11-02T05:51:35.409Z,3.90
2018-11-02T05:52:35.366Z,3.70
2018-11-02T05:53:35.342Z,3.60
2018-11-02T05:54:35.329Z,3.90
2018-11-02T05:55:35.360Z,3.80
2018-11-02T05:56:35.337Z,3.00
2018-11-02T05:57:35.257Z,3.00
2018-11-02T05:58:35.287Z,3.30
2018-11-02T05:59:35.278Z,3.00
2018-11-02T06:00:35.265Z,3.00
2018-11-02T06:01:35.358Z,2.90
2018-11-02T06:02:35.245Z,2.90
2018-11-02T06:03:35.255Z,3.30
2018-11-02T06:04:35.226Z,3.10
2018-11-02T06:05:35.214Z,3.10
2018-11-02T06:06:35.232Z,2.90
2018-11-02T06:07:35.223Z,3.40
2018-11-02T06:08:35.180Z,4.80
2018-11-02T06:09:35.154Z,5.00
2018-11-02T06:10:35.142Z,4.60
2018-11-02T06:11:35.186Z,4.30
2018-11-02T06:12:35.206Z,4.90
2018-11-02T06:13:35.178Z,4.60
2018-11-02T06:14:35.067Z,4.80
2018-11-02T06:15:35.098Z,5.00
2018-11-02T06:16:35.168Z,5.00
2018-11-02T06:17:35.079Z,5.40
2018-11-02T06:18:35.024Z,6.20
2018-11-02T06:19:35.376Z,5.50
2018-11-02T06:20:35.046Z,4.90
2018-11-02T06:21:35.031Z,4.60
2018-11-02T06:22:35.032Z,4.80
2018-11-02T06:23:35.033Z,5.20
2018-11-02T06:24:35.003Z,5.10
2018-11-02T06:25:35.014Z,5.00
2018-11-02T06:26:34.987Z,6.10
2018-11-02T06:27:34.923Z,6.10
2018-11-02T06:28:34.921Z,5.50
2018-11-02T06:29:34.958Z,5.60
2018-11-02T06:30:34.985Z,5.50
2018-11-02T06:31:34.953Z,5.60
2018-11-02T06:32:34.929Z,5.40
2018-11-02T06:33:34.902Z,5.40
2018-11-02T06:34:34.857Z,5.40
2018-11-02T06:35:34.887Z,5.40
2018-11-02T06:36:34.877Z,5.00
2018-11-02T06:37:34.900Z,5.50
2018-11-02T06:38:34.840Z,4.90
2018-11-02T06:39:34.836Z,4.80
2018-11-02T06:40:34.849Z,4.30
2018-11-02T06:41:34.773Z,3.90
2018-11-02T06:42:34.806Z,4.20
2018-11-02T06:43:34.825Z,3.90
2018-11-02T06:44:34.769Z,4.10
2018-11-02T06:45:34.779Z,3.40
2018-11-02T06:46:34.769Z,4.40
2018-11-02T06:47:34.751Z,3.90
2018-11-02T06:48:34.867Z,3.60
2018-11-02T06:49:34.735Z,3.80
2018-11-02T06:50:34.751Z,4.20
2018-11-02T06:51:34.716Z,4.00
2018-11-02T06:52:34.700Z,4.50
2018-11-02T06:53:34.713Z,3.80
2018-11-02T06:54:34.740Z,3.60
2018-11-02T06:55:34.667Z,4.30
2018-11-02T06:56:34.654Z,5.20
2018-11-02T06:57:34.644Z,3.70
2018-11-02T06:58:34.600Z,4.20
2018-11-02T06:59:34.774Z,4.00
2018-11-02T07:00:34.746Z,4.00
2018-11-02T07:01:34.607Z,4.20
2018-11-02T07:02:34.606Z,4.10
2018-11-02T07:03:34.587Z,4.50
2018-11-02T07:04:34.558Z,4.00
2018-11-02T07:05:34.558Z,4.00
2018-11-02T07:06:34.498Z,4.10
2018-11-02T07:07:34.633Z,3.50
2018-11-02T07:08:34.594Z,3.70
2018-11-02T07:09:34.523Z,4.00
2018-11-02T07:10:34.528Z,3.90
2018-11-02T07:11:34.495Z,4.90
2018-11-02T07:12:34.505Z,3.60
2018-11-02T07:13:34.792Z,4.50
2018-11-02T07:14:34.462Z,3.70
2018-11-02T07:15:34.461Z,4.10
2018-11-02T07:16:34.439Z,3.90
2018-11-02T07:17:34.434Z,4.30
2018-11-02T07:18:34.426Z,4.40
2018-11-02T07:19:34.435Z,4.20
2018-11-02T07:20:34.356Z,4.30
2018-11-02T07:21:34.665Z,4.60
2018-11-02T07:22:34.376Z,4.30
2018-11-02T07:23:34.334Z,4.40
2018-11-02T07:24:34.315Z,4.40
2018-11-02T07:25:34.376Z,4.10
2018-11-02T07:26:34.335Z,3.60
2018-11-02T07:27:34.346Z,4.40
2018-11-02T07:28:34.313Z,4.20
2018-11-02T07:29:34.304Z,4.40
2018-11-02T07:30:34.317Z,3.90
2018-11-02T07:31:34.233Z,5.80
2018-11-02T07:32:34.274Z,4.10
2018-11-02T07:33:34.224Z,3.70
2018-11-02T07:34:34.226Z,4.70
2018-11-02T07:35:34.270Z,4.50
2018-11-02T07:36:34.252Z,5.00
2018-11-02T07:37:34.198Z,5.50
2018-11-02T07:38:34.233Z,4.80
2018-11-02T07:39:34.142Z,4.80
2018-11-02T07:40:34.185Z,5.20
2018-11-02T07:41:34.176Z,4.30
2018-11-02T07:42:34.179Z,4.60
2018-11-02T07:43:34.282Z,5.10
2018-11-02T07:44:34.138Z,4.60
2018-11-02T07:45:34.134Z,5.10
2018-11-02T07:46:34.116Z,5.60
2018-11-02T07:47:34.269Z,5.60
2018-11-02T07:48:34.089Z,4.80
2018-11-02T07:49:34.229Z,5.50
2018-11-02T07:50:34.078Z,5.70
2018-11-02T07:51:34.066Z,6.10
2018-11-02T07:52:34.050Z,5.80
2018-11-02T07:53:34.036Z,5.70
2018-11-02T07:54:34.311Z,5.80
2018-11-02T07:55:34.019Z,5.50
2018-11-02T07:56:34.007Z,4.90
2018-11-02T07:57:33.997Z,5.40
2018-11-02T07:58:33.987Z,5.30
2018-11-02T07:59:33.999Z,5.10
2018-11-02T08:00:33.991Z,5.40
2018-11-02T08:01:33.952Z,5.50
2018-11-02T08:02:33.950Z,4.90
2018-11-02T08:03:33.938Z,4.70
2018-11-02T08:04:33.923Z,5.50
2018-11-02T08:05:33.925Z,5.00
2018-11-02T08:06:33.895Z,5.00
2018-11-02T08:07:33.895Z,4.80
2018-11-02T08:08:33.878Z,4.40
2018-11-02T08:09:33.885Z,4.60
2018-11-02T08:10:33.865Z,4.00
2018-11-02T08:11:33.879Z,4.50
2018-11-02T08:12:33.842Z,4.10
2018-11-02T08:13:33.818Z,4.70
2018-11-02T08:14:33.830Z,5.00
2018-11-02T08:15:33.795Z,4.60
2018-11-02T08:16:33.787Z,4.90
2018-11-02T08:17:33.804Z,5.00
2018-11-02T08:18:33.770Z,4.30
2018-11-02T08:19:33.756Z,4.60
2018-11-02T08:20:34.044Z,4.50
2018-11-02T08:21:33.732Z,4.60
2018-11-02T08:22:33.735Z,5.40
2018-11-02T08:23:33.710Z,5.90
2018-11-02T08:24:33.755Z,6.70
2018-11-02T08:25:33.697Z,5.70
2018-11-02T08:26:33.960Z,6.00
2018-11-02T08:27:33.669Z,6.30
2018-11-02T08:28:33.653Z,6.20
2018-11-02T08:29:33.602Z,5.70
2018-11-02T08:30:33.652Z,5.70
2018-11-02T08:31:33.628Z,6.10
2018-11-02T08:32:33.870Z,6.70
2018-11-02T08:33:33.600Z,6.10
2018-11-02T08:34:33.596Z,6.20
2018-11-02T08:35:33.580Z,6.40
2018-11-02T08:36:33.555Z,6.80
2018-11-02T08:37:33.559Z,6.90
2018-11-02T08:38:33.579Z,6.50
2018-11-02T08:39:33.548Z,6.30
2018-11-02T08:40:33.537Z,6.30
2018-11-02T08:41:33.510Z,6.10
2018-11-02T08:42:33.610Z,7.10
2018-11-02T08:43:33.492Z,6.70
2018-11-02T08:44:33.755Z,6.60
2018-11-02T08:45:33.472Z,7.30
2018-11-02T08:46:33.561Z,6.80
2018-11-02T08:47:33.452Z,7.10
2018-11-02T08:48:33.439Z,7.40
2018-11-02T08:49:33.426Z,7.60
2018-11-02T08:50:33.442Z,7.10
2018-11-02T08:51:33.411Z,8.50
2018-11-02T08:52:33.408Z,8.30
2018-11-02T08:53:33.383Z,8.20
2018-11-02T08:54:33.373Z,8.50
2018-11-02T08:55:33.388Z,8.00
2018-11-02T08:56:33.395Z,8.30
2018-11-02T08:57:33.368Z,8.00
2018-11-02T08:58:33.563Z,7.80
2018-11-02T08:59:33.402Z,7.40
2018-11-02T09:00:33.306Z,8.60
2018-11-02T09:01:33.253Z,8.20
2018-11-02T09:02:33.309Z,8.30
2018-11-02T09:03:33.277Z,8.00
2018-11-02T09:04:33.267Z,8.40
2018-11-02T09:05:33.208Z,8.00
2018-11-02T09:06:33.239Z,8.00
2018-11-02T09:07:33.273Z,7.00
2018-11-02T09:08:33.294Z,7.70
2018-11-02T09:09:33.213Z,7.80
2018-11-02T09:10:33.226Z,6.90
2018-11-02T09:11:33.191Z,7.20
2018-11-02T09:12:33.142Z,7.20
2018-11-02T09:13:33.181Z,7.10
2018-11-02T09:14:33.147Z,7.00
2018-11-02T09:15:33.140Z,6.70
2018-11-02T09:16:33.143Z,7.50
2018-11-02T09:17:33.076Z,7.10
2018-11-02T09:18:33.112Z,6.80
2018-11-02T09:19:33.245Z,7.30
2018-11-02T09:20:33.391Z,7.20
2018-11-02T09:21:33.077Z,7.50
2018-11-02T09:22:33.023Z,7.10
2018-11-02T09:23:33.057Z,7.40
2018-11-02T09:24:33.067Z,6.70
2018-11-02T09:25:33.051Z,6.20
2018-11-02T09:26:33.062Z,7.00
2018-11-02T09:27:33.153Z,7.20
2018-11-02T09:28:33.006Z,8.70
2018-11-02T09:29:33.010Z,7.20
2018-11-02T09:30:32.977Z,7.10
2018-11-02T09:31:32.989Z,6.60
2018-11-02T09:32:32.971Z,6.40
2018-11-02T09:33:32.922Z,6.30
2018-11-02T09:34:32.936Z,6.30
2018-11-02T09:35:32.885Z,6.70
2018-11-02T09:36:32.939Z,6.30
2018-11-02T09:37:32.903Z,6.30
2018-11-02T09:38:32.855Z,6.20
2018-11-02T09:39:32.999Z,6.00
2018-11-02T09:40:33.204Z,6.20
2018-11-02T09:41:32.857Z,6.70
2018-11-02T09:42:32.918Z,6.30
2018-11-02T09:43:32.839Z,6.40
2018-11-02T09:44:32.884Z,5.70
2018-11-02T09:45:32.775Z,6.60
2018-11-02T09:46:32.880Z,6.10
2018-11-02T09:47:32.804Z,7.00
2018-11-02T09:48:32.788Z,5.50
2018-11-02T09:49:32.787Z,6.40
2018-11-02T09:50:32.762Z,6.20
2018-11-02T09:51:32.817Z,6.30
2018-11-02T09:52:32.890Z,7.50
2018-11-02T09:53:32.732Z,6.20
2018-11-02T09:54:32.678Z,6.20
2018-11-02T09:55:32.728Z,6.50
2018-11-02T09:56:32.722Z,5.70
2018-11-02T09:57:32.773Z,6.60
2018-11-02T09:58:32.709Z,6.20
2018-11-02T09:59:32.664Z,6.20
2018-11-02T10:00:32.671Z,7.20
2018-11-02T10:01:32.655Z,6.30
2018-11-02T10:02:32.658Z,6.70
2018-11-02T10:03:32.651Z,6.50
2018-11-02T10:04:32.622Z,6.80
2018-11-02T10:05:32.624Z,6.70
2018-11-02T10:06:32.609Z,6.50
2018-11-02T10:07:32.580Z,6.30
2018-11-02T10:08:32.632Z,6.30
2018-11-02T10:09:32.627Z,7.90
2018-11-02T10:10:32.560Z,7.70
2018-11-02T10:11:32.539Z,7.10
2018-11-02T10:12:32.551Z,6.30
2018-11-02T10:13:32.516Z,6.60
2018-11-02T10:14:32.508Z,6.20
2018-11-02T10:15:32.513Z,6.60
2018-11-02T10:16:32.490Z,6.10
2018-11-02T10:17:32.474Z,6.90
2018-11-02T10:18:32.414Z,6.70
2018-11-02T10:19:32.451Z,7.80
2018-11-02T10:20:32.716Z,6.40
2018-11-02T10:21:32.428Z,6.80
2018-11-02T10:22:32.419Z,7.00
2018-11-02T10:23:32.465Z,6.70
2018-11-02T10:24:32.398Z,6.90
2018-11-02T10:25:32.397Z,6.30
2018-11-02T10:26:32.396Z,6.60
2018-11-02T10:27:32.367Z,7.40
2018-11-02T10:28:32.354Z,6.50
2018-11-02T10:29:32.344Z,10.70
2018-11-02T10:30:32.387Z,6.40
2018-11-02T10:31:32.321Z,7.20
2018-11-02T10:32:32.332Z,7.20
2018-11-02T10:33:32.306Z,8.50
2018-11-02T10:34:32.291Z,7.30
2018-11-02T10:35:32.335Z,7.80
2018-11-02T10:36:32.298Z,8.50
2018-11-02T10:37:32.261Z,7.80
2018-11-02T10:38:32.334Z,7.30
2018-11-02T10:39:32.264Z,7.10
2018-11-02T10:40:32.234Z,6.50
2018-11-02T10:41:32.219Z,7.50
2018-11-02T10:42:32.303Z,6.50
2018-11-02T10:43:32.192Z,6.80
2018-11-02T10:44:32.273Z,6.50
2018-11-02T10:45:32.280Z,6.70
2018-11-02T10:46:32.174Z,7.10
2018-11-02T10:47:32.185Z,6.30
2018-11-02T10:48:32.223Z,6.00
2018-11-02T10:49:32.268Z,6.60
2018-11-02T10:50:32.117Z,7.10
2018-11-02T10:51:32.116Z,7.10
2018-11-02T10:52:32.218Z,6.70
2018-11-02T10:53:32.100Z,6.30
2018-11-02T10:54:32.896Z,6.10
2018-11-02T10:55:32.074Z,6.10
2018-11-02T10:56:32.078Z,5.90
2018-11-02T10:57:31.998Z,6.00
2018-11-02T10:58:32.100Z,7.30
2018-11-02T10:59:32.031Z,6.70
2018-11-02T11:00:32.073Z,6.40
2018-11-02T11:01:32.098Z,7.30
2018-11-02T11:02:32.006Z,7.60
2018-11-02T11:03:31.983Z,8.50
2018-11-02T11:04:32.030Z,6.30
2018-11-02T11:05:32.036Z,6.10
2018-11-02T11:06:31.943Z,7.00
2018-11-02T11:07:31.907Z,6.10
2018-11-02T11:08:31.922Z,5.70
2018-11-02T11:09:31.887Z,6.00
2018-11-02T11:10:31.870Z,6.90
2018-11-02T11:11:31.941Z,4.90
2018-11-02T11:12:32.002Z,6.60
2018-11-02T11:13:32.199Z,6.30
2018-11-02T11:14:31.820Z,5.50
2018-11-02T11:15:31.854Z,4.90
2018-11-02T11:16:31.851Z,6.40
2018-11-02T11:17:31.828Z,5.30
2018-11-02T11:18:31.841Z,7.80
2018-11-02T11:19:31.964Z,6.00
2018-11-02T11:20:31.805Z,5.80
2018-11-02T11:21:31.873Z,5.70
2018-11-02T11:22:31.807Z,6.10
2018-11-02T11:23:31.723Z,5.70
2018-11-02T11:24:31.751Z,5.20
2018-11-02T11:25:32.085Z,6.50
2018-11-02T11:26:31.728Z,6.70
2018-11-02T11:27:31.796Z,9.20
2018-11-02T11:28:31.710Z,5.90
2018-11-02T11:29:32.009Z,6.10
2018-11-02T11:30:31.651Z,5.40
2018-11-02T11:31:31.645Z,7.00
2018-11-02T11:32:31.683Z,7.30
2018-11-02T11:33:31.654Z,5.60
2018-11-02T11:34:31.667Z,5.00
2018-11-02T11:35:31.608Z,6.40
2018-11-02T11:36:31.630Z,6.20
2018-11-02T11:37:31.654Z,6.50
2018-11-02T11:38:31.557Z,6.00
2018-11-02T11:39:31.600Z,7.10
2018-11-02T11:40:31.581Z,7.20
2018-11-02T11:41:31.575Z,6.20
2018-11-02T11:42:31.559Z,7.70
2018-11-02T11:43:31.552Z,6.10
2018-11-02T11:44:31.533Z,5.20
2018-11-02T11:45:31.561Z,5.50
2018-11-02T11:46:31.532Z,6.30
2018-11-02T11:47:31.502Z,5.50
2018-11-02T11:48:31.568Z,6.50
2018-11-02T11:49:31.481Z,7.00
2018-11-02T11:50:31.490Z,6.80
2018-11-02T11:51:31.519Z,5.90
2018-11-02T11:52:31.406Z,6.50
2018-11-02T11:53:31.483Z,6.40
2018-11-02T11:54:31.531Z,7.00
2018-11-02T11:55:31.433Z,7.30
2018-11-02T11:56:31.425Z,6.10
2018-11-02T11:57:31.717Z,6.90
2018-11-02T11:58:31.387Z,6.70
2018-11-02T11:59:31.393Z,7.70
2018-11-02T12:00:31.371Z,8.00
2018-11-02T12:01:31.357Z,6.50
2018-11-02T12:02:31.497Z,6.70
2018-11-02T12:03:31.353Z,6.00
2018-11-02T12:04:31.358Z,7.50
2018-11-02T12:05:31.310Z,7.40
2018-11-02T12:06:31.311Z,7.30
2018-11-02T12:07:31.329Z,6.50
2018-11-02T12:08:31.588Z,6.60
2018-11-02T12:09:31.228Z,7.10
2018-11-02T12:10:31.349Z,7.40
2018-11-02T12:11:31.258Z,7.80
2018-11-02T12:12:31.243Z,7.70
2018-11-02T12:13:31.222Z,7.10
2018-11-02T12:14:31.246Z,7.20
2018-11-02T12:15:31.207Z,6.30
2018-11-02T12:16:31.195Z,6.80
2018-11-02T12:17:31.191Z,7.40
2018-11-02T12:18:31.169Z,7.10
2018-11-02T12:19:31.160Z,7.90
2018-11-02T12:20:31.217Z,8.20
2018-11-02T12:21:31.209Z,6.80
2018-11-02T12:22:31.140Z,7.90
2018-11-02T12:23:31.157Z,7.60
2018-11-02T12:24:31.397Z,7.90
2018-11-02T12:25:31.096Z,7.70
2018-11-02T12:26:31.086Z,9.20
2018-11-02T12:27:31.083Z,6.70
2018-11-02T12:28:31.051Z,6.70
2018-11-02T12:29:31.051Z,6.90
2018-11-02T12:30:31.133Z,7.60
2018-11-02T12:31:30.990Z,7.20
2018-11-02T12:32:31.020Z,6.70
2018-11-02T12:33:31.007Z,8.20
2018-11-02T12:34:31.094Z,7.10
2018-11-02T12:35:30.983Z,7.80
2018-11-02T12:36:31.004Z,7.60
2018-11-02T12:37:30.963Z,9.20
2018-11-02T12:38:30.962Z,8.70
2018-11-02T12:39:30.946Z,8.60
2018-11-02T12:40:30.983Z,7.40
2018-11-02T12:41:30.887Z,8.30
2018-11-02T12:42:30.937Z,7.60
2018-11-02T12:43:31.050Z,11.70
2018-11-02T12:44:30.851Z,8.40
2018-11-02T12:45:30.899Z,7.10
2018-11-02T12:46:30.869Z,7.30
2018-11-02T12:47:30.859Z,8.40
2018-11-02T12:48:31.170Z,7.00
2018-11-02T12:49:31.208Z,7.70
2018-11-02T12:50:30.868Z,7.80
2018-11-02T12:51:30.826Z,6.90
2018-11-02T12:52:30.811Z,8.60
2018-11-02T12:53:30.791Z,8.10
2018-11-02T12:54:30.818Z,7.90
2018-11-02T12:55:30.784Z,8.70
2018-11-02T12:56:30.769Z,7.90
2018-11-02T12:57:30.818Z,7.30
2018-11-02T12:58:30.750Z,7.70
2018-11-02T12:59:30.705Z,6.70
2018-11-02T13:00:30.744Z,7.60
2018-11-02T13:01:30.709Z,8.40
2018-11-02T13:02:30.698Z,7.60
2018-11-02T13:03:30.698Z,7.70
2018-11-02T13:04:30.679Z,7.00
2018-11-02T13:05:30.670Z,9.10
2018-11-02T13:06:30.712Z,6.60
2018-11-02T13:07:30.648Z,6.70
2018-11-02T13:08:30.641Z,6.20
2018-11-02T13:09:30.680Z,7.70
2018-11-02T13:10:30.627Z,7.60
2018-11-02T13:11:30.604Z,7.50
2018-11-02T13:12:30.889Z,7.30
2018-11-02T13:13:30.591Z,7.40
2018-11-02T13:14:30.569Z,7.20
2018-11-02T13:15:30.570Z,5.70
2018-11-02T13:16:30.546Z,7.60
2018-11-02T13:17:30.581Z,7.10
2018-11-02T13:18:30.554Z,7.10